Time;durP1;ratioP1;P1;durP2;ratioP2;P2;SDS_P1;SDS_P2;PMS_P1;PMS_P2;Temp;Humidity;BMP_temperature;BMP_pressure;BME280_temperature;BME280_humidity;BME280_pressure;Samples;Min_cycle;Max_cycle;Signal;HPM_P1;HPM_P2
2022/06/21 00:02:25;;;;;;;12.20;8.30;;;18.90;99.90;;;;;;4981460;28;20216;-61
2022/06/21 00:04:51;;;;;;;11.40;8.70;;;18.80;99.90;;;;;;4990224;28;20240;-60
2022/06/21 00:07:26;;;;;;;9.07;8.17;;;18.80;99.90;;;;;;4986209;28;20482;-61
2022/06/21 00:09:53;;;;;;;11.50;8.47;;;18.80;99.90;;;;;;4979735;28;20560;-60
2022/06/21 00:12:19;;;;;;;10.30;8.30;;;18.80;99.90;;;;;;4996383;28;20423;-60
2022/06/21 00:14:45;;;;;;;10.70;8.63;;;18.70;99.90;;;;;;4994390;28;20938;-61
2022/06/21 00:17:16;;;;;;;13.30;8.40;;;18.70;99.90;;;;;;4986774;28;20421;-60
2022/06/21 00:19:43;;;;;;;15.70;8.17;;;18.60;99.90;;;;;;4962549;28;20523;-61
2022/06/21 00:22:17;;;;;;;13.03;8.20;;;18.60;99.90;;;;;;4994059;28;20463;-60
2022/06/21 00:24:44;;;;;;;13.07;8.13;;;18.50;99.90;;;;;;4996203;28;20490;-61
2022/06/21 00:27:17;;;;;;;10.67;8.40;;;18.50;99.90;;;;;;4989062;28;21023;-61
2022/06/21 00:29:43;;;;;;;10.03;8.03;;;18.50;99.90;;;;;;4982815;28;20480;-61
2022/06/21 00:32:14;;;;;;;16.13;9.07;;;18.50;99.90;;;;;;4988887;28;21208;-60
2022/06/21 00:34:41;;;;;;;13.57;8.40;;;18.40;99.90;;;;;;4966853;28;20863;-62
2022/06/21 00:37:20;;;;;;;10.83;8.00;;;18.40;99.90;;;;;;4988792;28;20430;-61
2022/06/21 00:39:46;;;;;;;9.47;8.00;;;18.40;99.90;;;;;;4987420;28;20531;-61
2022/06/21 00:42:31;;;;;;;9.83;7.60;;;18.30;99.90;;;;;;4991077;28;20498;-61
2022/06/21 00:45:06;;;;;;;10.53;7.43;;;18.30;99.90;;;;;;4975190;28;20441;-62
2022/06/21 00:47:50;;;;;;;12.30;8.73;;;18.30;99.90;;;;;;4999487;28;20426;-61
2022/06/21 00:50:19;;;;;;;11.63;8.07;;;18.20;99.90;;;;;;4997892;28;20451;-60
2022/06/21 00:52:47;;;;;;;8.90;8.00;;;18.20;99.90;;;;;;4981694;28;20459;-61
2022/06/21 00:55:43;;;;;;;9.83;8.00;;;18.20;99.90;;;;;;4977675;28;20435;-61
2022/06/21 00:58:12;;;;;;;10.00;7.90;;;18.20;99.90;;;;;;4990531;28;20455;-61
2022/06/21 01:00:56;;;;;;;14.73;7.97;;;18.10;99.90;;;;;;4982568;28;20815;-61
2022/06/21 01:03:33;;;;;;;12.23;7.77;;;18.10;99.90;;;;;;4992659;28;20928;-62
2022/06/21 01:06:22;;;;;;;10.77;8.17;;;18.00;99.90;;;;;;4992823;28;21185;-61
2022/06/21 01:08:52;;;;;;;11.97;7.07;;;18.00;99.90;;;;;;4985914;28;20429;-61
2022/06/21 01:11:23;;;;;;;9.60;8.07;;;17.90;99.90;;;;;;4995243;28;20543;-60
2022/06/21 01:13:52;;;;;;;12.10;7.33;;;17.90;99.90;;;;;;4988348;28;20442;-61
2022/06/21 01:16:19;;;;;;;10.30;7.93;;;17.80;99.90;;;;;;5004001;28;20817;-61
2022/06/21 01:18:46;;;;;;;9.83;8.80;;;17.70;99.90;;;;;;4990972;28;20441;-60
2022/06/21 01:21:15;;;;;;;8.60;7.70;;;17.70;99.90;;;;;;4985541;28;21142;-60
2022/06/21 01:23:49;;;;;;;9.97;8.00;;;17.60;99.90;;;;;;5001159;28;20562;-61
2022/06/21 01:26:31;;;;;;;11.93;7.43;;;17.60;99.90;;;;;;4998083;28;20523;-60
2022/06/21 01:28:58;;;;;;;8.50;7.67;;;17.50;99.90;;;;;;4989525;28;20424;-61
2022/06/21 01:31:24;;;;;;;10.50;8.17;;;17.50;99.90;;;;;;4995567;28;20459;-61
2022/06/21 01:33:50;;;;;;;9.30;8.13;;;17.50;99.90;;;;;;5005962;28;20427;-60
2022/06/21 01:36:24;;;;;;;14.70;7.80;;;17.40;99.90;;;;;;4987218;28;20585;-61
2022/06/21 01:39:00;;;;;;;8.37;7.20;;;17.40;99.90;;;;;;4995123;28;20553;-61
2022/06/21 01:41:34;;;;;;;9.47;7.90;;;17.40;99.90;;;;;;4989506;28;20924;-60
2022/06/21 01:44:06;;;;;;;9.90;8.40;;;17.40;99.90;;;;;;4984102;28;20436;-60
2022/06/21 01:46:32;;;;;;;13.17;9.17;;;17.30;99.90;;;;;;4983456;28;20447;-61
2022/06/21 01:49:14;;;;;;;11.53;8.70;;;17.30;99.90;;;;;;4982838;28;20438;-60
2022/06/21 01:51:51;;;;;;;12.17;8.60;;;17.30;99.90;;;;;;4986245;28;20518;-60
2022/06/21 01:54:19;;;;;;;8.60;7.70;;;17.20;99.90;;;;;;4987717;28;20447;-60
2022/06/21 01:56:47;;;;;;;10.83;7.80;;;17.20;99.90;;;;;;4986169;28;20439;-62
2022/06/21 01:59:14;;;;;;;10.27;8.93;;;17.20;99.90;;;;;;4996397;28;20479;-61
2022/06/21 02:02:01;;;;;;;12.23;8.80;;;17.20;99.90;;;;;;4973645;28;20471;-61
2022/06/21 02:04:31;;;;;;;10.53;8.50;;;17.20;99.90;;;;;;4989846;28;20499;-61
2022/06/21 02:07:05;;;;;;;11.13;7.50;;;17.20;99.90;;;;;;4983185;28;20821;-61
2022/06/21 02:09:38;;;;;;;13.33;7.73;;;17.10;99.90;;;;;;4977885;28;20486;-61
2022/06/21 02:12:07;;;;;;;10.83;7.70;;;17.10;99.90;;;;;;4999439;28;20452;-61
2022/06/21 02:14:38;;;;;;;9.47;8.07;;;17.10;99.90;;;;;;4991673;28;20470;-60
2022/06/21 02:17:23;;;;;;;11.03;7.37;;;17.10;99.90;;;;;;4988343;28;20443;-61
2022/06/21 02:20:09;;;;;;;10.33;8.53;;;17.10;99.90;;;;;;4999115;28;20467;-61
2022/06/21 02:22:35;;;;;;;8.67;7.77;;;17.10;99.90;;;;;;4969702;28;20487;-61
2022/06/21 02:25:02;;;;;;;8.40;7.57;;;17.10;99.90;;;;;;4987914;28;20432;-60
2022/06/21 02:27:32;;;;;;;11.93;7.40;;;17.10;99.90;;;;;;4990933;28;20667;-62
2022/06/21 02:30:00;;;;;;;14.70;8.17;;;17.10;99.90;;;;;;4991678;28;20957;-60
2022/06/21 02:32:44;;;;;;;9.30;8.10;;;17.00;99.90;;;;;;4989043;28;20807;-61
2022/06/21 02:35:18;;;;;;;8.33;7.53;;;17.00;99.90;;;;;;4994786;28;20436;-61
2022/06/21 02:37:46;;;;;;;11.13;7.77;;;17.00;99.90;;;;;;5002970;28;20421;-61
2022/06/21 02:40:28;;;;;;;9.57;8.03;;;17.00;99.90;;;;;;4980764;28;20987;-61
2022/06/21 02:42:59;;;;;;;12.10;8.90;;;17.00;99.90;;;;;;4990999;28;20462;-60
2022/06/21 02:45:49;;;;;;;9.83;7.67;;;16.90;99.90;;;;;;4986863;28;21154;-61
2022/06/21 02:48:20;;;;;;;11.60;8.17;;;16.90;99.90;;;;;;4993609;28;20514;-60
2022/06/21 02:50:51;;;;;;;9.30;8.30;;;16.80;99.90;;;;;;4957663;28;20483;-61
2022/06/21 02:53:35;;;;;;;11.03;8.30;;;16.70;99.90;;;;;;4979962;28;21040;-61
2022/06/21 02:56:18;;;;;;;10.10;8.00;;;16.70;99.90;;;;;;4991558;28;20431;-61
2022/06/21 02:58:47;;;;;;;10.23;9.00;;;16.70;99.90;;;;;;5017912;28;20538;-61
2022/06/21 03:01:34;;;;;;;10.00;7.93;;;16.70;99.90;;;;;;4996532;28;20460;-60
2022/06/21 03:03:59;;;;;;;12.77;8.43;;;16.70;99.90;;;;;;4987800;28;20547;-61
2022/06/21 03:06:27;;;;;;;10.23;8.17;;;16.60;99.90;;;;;;4973184;28;20531;-60
2022/06/21 03:09:15;;;;;;;10.53;9.20;;;16.60;99.90;;;;;;4991078;28;20195;-61
2022/06/21 03:11:43;;;;;;;9.03;8.10;;;16.60;99.90;;;;;;4986355;28;20471;-60
2022/06/21 03:14:18;;;;;;;11.17;8.67;;;16.60;99.90;;;;;;4992397;28;20474;-60
2022/06/21 03:16:44;;;;;;;12.80;8.60;;;16.60;99.90;;;;;;5001707;28;20442;-61
2022/06/21 03:19:30;;;;;;;9.30;8.30;;;16.50;99.90;;;;;;4993413;28;20450;-60
2022/06/21 03:21:57;;;;;;;13.00;8.90;;;16.50;99.90;;;;;;4989479;28;20479;-60
2022/06/21 03:24:26;;;;;;;10.60;8.57;;;16.50;99.90;;;;;;4993446;28;20942;-61
2022/06/21 03:27:00;;;;;;;9.37;8.10;;;16.50;99.90;;;;;;4991169;28;20440;-61
2022/06/21 03:29:28;;;;;;;13.40;8.53;;;16.50;99.90;;;;;;4986790;28;20500;-60
2022/06/21 03:31:54;;;;;;;9.90;8.90;;;16.40;99.90;;;;;;4988515;28;20961;-61
2022/06/21 03:34:22;;;;;;;10.07;8.57;;;16.40;99.90;;;;;;4989850;28;20440;-60
2022/06/21 03:36:49;;;;;;;9.30;8.40;;;16.40;99.90;;;;;;4982237;28;20417;-60
2022/06/21 03:39:20;;;;;;;11.60;8.67;;;16.40;99.90;;;;;;4975382;28;20463;-60
2022/06/21 03:41:48;;;;;;;10.40;8.43;;;16.40;99.90;;;;;;4982427;28;20559;-61
2022/06/21 03:44:24;;;;;;;12.63;8.70;;;16.40;99.90;;;;;;4982618;28;20456;-61
2022/06/21 03:47:11;;;;;;;12.43;8.50;;;16.50;99.90;;;;;;4987400;28;20427;-60
2022/06/21 03:49:45;;;;;;;8.80;7.90;;;16.50;99.90;;;;;;4987424;28;20431;-60
2022/06/21 03:52:41;;;;;;;10.60;8.97;;;16.50;99.90;;;;;;4983528;28;20441;-60
2022/06/21 03:55:28;;;;;;;9.70;8.50;;;16.50;99.90;;;;;;4981717;28;20531;-55
2022/06/21 03:58:24;;;;;;;10.13;8.60;;;16.50;99.90;;;;;;4966041;28;20509;-55
2022/06/21 04:01:07;;;;;;;13.93;8.90;;;16.50;99.90;;;;;;4982804;28;20467;-55
2022/06/21 04:03:54;;;;;;;13.27;9.07;;;16.50;99.90;;;;;;4978219;28;20444;-56
2022/06/21 04:06:24;;;;;;;14.00;8.90;;;16.50;99.90;;;;;;4981875;28;21027;-56
2022/06/21 04:09:11;;;;;;;10.00;8.77;;;16.50;99.90;;;;;;4981059;28;20474;-57
2022/06/21 04:11:54;;;;;;;11.37;9.27;;;16.50;99.90;;;;;;4983572;28;20856;-57
2022/06/21 04:14:40;;;;;;;19.23;9.77;;;16.60;99.90;;;;;;4970043;28;20450;-56
2022/06/21 04:17:20;;;;;;;9.63;7.80;;;16.60;99.90;;;;;;4977768;28;20563;-57
2022/06/21 04:20:01;;;;;;;13.50;9.47;;;16.70;99.90;;;;;;4969437;28;20852;-57
2022/06/21 04:22:33;;;;;;;14.03;10.27;;;16.80;99.90;;;;;;4994228;28;20499;-57
2022/06/21 04:25:11;;;;;;;15.30;11.50;;;16.90;99.90;;;;;;4978346;28;20525;-58
2022/06/21 04:27:52;;;;;;;12.83;10.43;;;16.90;99.90;;;;;;4976008;28;20440;-56
2022/06/21 04:30:31;;;;;;;15.57;10.67;;;17.00;99.90;;;;;;4972836;28;21510;-56
2022/06/21 04:33:20;;;;;;;13.97;8.77;;;17.10;99.90;;;;;;4977647;28;20440;-57
2022/06/21 04:36:19;;;;;;;13.00;9.90;;;17.20;99.90;;;;;;4986618;28;21240;-57
2022/06/21 04:39:06;;;;;;;14.57;11.30;;;17.30;99.90;;;;;;4948122;28;20856;-56
2022/06/21 04:42:03;;;;;;;13.80;10.07;;;17.40;99.90;;;;;;4978238;28;20573;-61
2022/06/21 04:44:44;;;;;;;12.60;8.80;;;17.40;99.90;;;;;;4980275;28;20468;-62
2022/06/21 04:47:26;;;;;;;14.47;10.00;;;17.40;99.90;;;;;;4978381;28;20797;-62
2022/06/21 04:50:20;;;;;;;14.23;8.57;;;17.40;99.90;;;;;;4980419;28;20465;-61
2022/06/21 04:53:17;;;;;;;8.63;7.10;;;17.40;99.90;;;;;;4975514;28;20440;-63
2022/06/21 04:56:05;;;;;;;8.33;6.97;;;17.40;99.90;;;;;;4957545;28;20445;-63
2022/06/21 04:58:31;;;;;;;9.43;7.60;;;17.30;99.90;;;;;;4970815;28;20436;-62
2022/06/21 05:00:58;;;;;;;9.33;6.73;;;17.30;99.90;;;;;;4976701;28;20809;-62
2022/06/21 05:03:42;;;;;;;9.47;7.20;;;17.30;99.10;;;;;;4990534;28;20193;-62
2022/06/21 05:06:11;;;;;;;7.77;5.90;;;17.20;98.80;;;;;;4998993;28;20438;-63
2022/06/21 05:08:39;;;;;;;8.40;6.77;;;17.20;99.00;;;;;;4969070;28;20405;-61
2022/06/21 05:11:05;;;;;;;10.90;6.63;;;17.30;99.60;;;;;;4969250;28;20467;-63
2022/06/21 05:13:49;;;;;;;8.27;7.37;;;17.30;99.00;;;;;;4977289;28;20413;-63
2022/06/21 05:16:29;;;;;;;8.20;6.70;;;17.30;99.90;;;;;;4990603;28;20552;-63
2022/06/21 05:18:58;;;;;;;9.60;6.10;;;17.40;99.00;;;;;;4970269;28;21004;-63
2022/06/21 05:21:56;;;;;;;8.97;6.40;;;17.40;97.90;;;;;;4993627;28;20551;-62
2022/06/21 05:24:23;;;;;;;7.63;6.10;;;17.50;97.50;;;;;;4970269;28;20425;-63
2022/06/21 05:27:14;;;;;;;8.80;7.40;;;17.50;97.60;;;;;;4975454;28;20838;-62
2022/06/21 05:29:54;;;;;;;13.13;7.47;;;17.50;98.60;;;;;;4969496;28;21079;-64
2022/06/21 05:32:25;;;;;;;6.83;5.80;;;17.60;98.90;;;;;;4986439;28;20973;-62
2022/06/21 05:34:56;;;;;;;11.20;6.47;;;17.70;98.80;;;;;;4976004;28;20462;-62
2022/06/21 05:37:32;;;;;;;6.90;5.57;;;17.70;97.80;;;;;;4987344;28;20435;-63
2022/06/21 05:40:03;;;;;;;9.20;6.30;;;17.70;97.30;;;;;;4991336;28;20436;-63
2022/06/21 05:42:29;;;;;;;8.07;5.00;;;17.80;96.60;;;;;;4973145;28;21099;-62
2022/06/21 05:44:59;;;;;;;6.00;4.70;;;17.90;94.70;;;;;;4972972;28;20441;-63
2022/06/21 05:47:41;;;;;;;8.37;5.03;;;17.90;93.10;;;;;;4993791;28;20276;-63
2022/06/21 05:50:10;;;;;;;6.60;4.70;;;18.10;92.40;;;;;;4993501;28;20466;-64
2022/06/21 05:52:42;;;;;;;7.53;5.10;;;18.20;90.50;;;;;;4987991;28;20917;-63
2022/06/21 05:55:11;;;;;;;8.60;4.80;;;18.30;88.10;;;;;;4992588;28;21081;-63
2022/06/21 05:58:01;;;;;;;9.40;5.40;;;18.40;83.80;;;;;;4968660;28;20421;-63
2022/06/21 06:00:30;;;;;;;4.90;4.40;;;18.50;81.90;;;;;;4979130;28;20470;-64
2022/06/21 06:03:25;;;;;;;5.00;4.50;;;18.50;79.60;;;;;;4998126;28;20554;-63
2022/06/21 06:05:54;;;;;;;5.33;4.27;;;18.40;79.10;;;;;;4992047;28;20444;-63
2022/06/21 06:08:27;;;;;;;4.83;4.40;;;18.30;79.80;;;;;;4973672;28;20413;-64
2022/06/21 06:10:54;;;;;;;7.50;4.90;;;18.20;81.20;;;;;;4979442;28;20457;-63
2022/06/21 06:13:34;;;;;;;5.00;4.23;;;18.20;81.10;;;;;;4972765;28;20437;-63
2022/06/21 06:16:05;;;;;;;7.40;4.33;;;18.20;81.40;;;;;;4972887;28;20425;-63
2022/06/21 06:18:50;;;;;;;8.90;4.80;;;18.10;82.10;;;;;;4995230;28;20442;-67
2022/06/21 06:21:32;;;;;;;7.33;3.80;;;18.10;81.60;;;;;;4996625;28;20464;-63
2022/06/21 06:24:07;;;;;;;4.10;3.70;;;18.20;82.60;;;;;;4982072;28;20954;-63
2022/06/21 06:26:37;;;;;;;4.93;3.67;;;18.20;80.00;;;;;;4984574;28;20489;-63
2022/06/21 06:29:26;;;;;;;4.87;4.40;;;18.20;79.00;;;;;;4992008;28;20508;-63
2022/06/21 06:32:14;;;;;;;9.57;4.03;;;18.20;80.20;;;;;;4978525;28;20536;-63
2022/06/21 06:34:46;;;;;;;4.10;3.70;;;18.20;79.00;;;;;;4971042;28;20470;-63
2022/06/21 06:37:37;;;;;;;6.53;5.00;;;18.20;79.60;;;;;;4974266;28;20436;-62
2022/06/21 06:40:30;;;;;;;7.57;4.00;;;18.30;79.10;;;;;;4991395;28;20528;-63
2022/06/21 06:43:09;;;;;;;5.70;4.20;;;18.30;79.00;;;;;;4991201;28;20491;-63
2022/06/21 06:45:36;;;;;;;6.27;4.40;;;18.30;79.00;;;;;;4972430;28;20437;-62
2022/06/21 06:48:11;;;;;;;10.10;4.30;;;18.30;79.50;;;;;;4955040;28;20818;-62
2022/06/21 06:50:41;;;;;;;5.53;4.10;;;18.40;79.40;;;;;;4977914;28;20460;-62
2022/06/21 06:53:29;;;;;;;4.73;4.30;;;18.50;79.90;;;;;;4971819;28;20409;-62
2022/06/21 06:56:03;;;;;;;6.80;4.10;;;18.50;78.20;;;;;;4971770;28;20775;-63
2022/06/21 06:58:43;;;;;;;5.80;4.43;;;18.60;77.60;;;;;;4971541;28;20410;-63
2022/06/21 07:01:43;;;;;;;7.73;4.57;;;18.60;75.60;;;;;;4982417;28;20464;-62
2022/06/21 07:04:13;;;;;;;9.40;4.00;;;18.70;76.10;;;;;;4957364;28;20556;-62
2022/06/21 07:06:47;;;;;;;7.33;4.10;;;18.80;76.30;;;;;;4981750;28;20424;-63
2022/06/21 07:09:30;;;;;;;7.20;4.30;;;18.90;75.40;;;;;;4988496;28;20408;-63
2022/06/21 07:12:02;;;;;;;4.10;3.70;;;18.90;74.20;;;;;;4990002;28;20408;-63
2022/06/21 07:14:29;;;;;;;6.10;3.50;;;18.90;74.00;;;;;;4989424;28;20424;-63
2022/06/21 07:17:03;;;;;;;7.90;3.73;;;19.00;74.30;;;;;;4990966;28;20492;-62
2022/06/21 07:19:29;;;;;;;6.80;4.00;;;19.00;73.00;;;;;;4988374;28;20463;-62
2022/06/21 07:21:55;;;;;;;4.67;3.87;;;19.10;72.50;;;;;;5000016;28;20910;-63
2022/06/21 07:24:21;;;;;;;8.60;3.87;;;19.10;71.80;;;;;;4970952;28;20493;-62
2022/06/21 07:27:01;;;;;;;3.90;3.53;;;19.10;72.10;;;;;;4987316;28;20333;-64
2022/06/21 07:29:51;;;;;;;4.03;3.50;;;19.20;72.70;;;;;;4985766;28;20188;-63
2022/06/21 07:32:21;;;;;;;6.77;3.50;;;19.20;72.60;;;;;;4990775;28;20432;-64
2022/06/21 07:35:02;;;;;;;5.57;3.10;;;19.20;72.00;;;;;;4994932;28;20436;-63
2022/06/21 07:37:35;;;;;;;5.37;2.90;;;19.30;72.10;;;;;;4976035;28;20433;-63
2022/06/21 07:40:25;;;;;;;8.17;4.07;;;19.30;70.70;;;;;;4972223;28;20440;-63
2022/06/21 07:43:21;;;;;;;7.27;4.10;;;19.30;71.30;;;;;;4971306;28;20535;-62
2022/06/21 07:45:57;;;;;;;6.77;3.90;;;19.40;72.00;;;;;;4984163;28;20444;-63
2022/06/21 07:48:45;;;;;;;8.33;4.30;;;19.40;72.10;;;;;;4973867;28;20523;-62
2022/06/21 07:51:16;;;;;;;8.40;4.10;;;19.60;73.20;;;;;;4987904;28;20455;-62
2022/06/21 07:54:03;;;;;;;8.50;3.93;;;19.90;71.60;;;;;;4989405;28;20912;-63
2022/06/21 07:56:38;;;;;;;5.83;4.47;;;20.10;69.30;;;;;;4982817;28;20501;-63
2022/06/21 07:59:15;;;;;;;8.40;3.50;;;20.10;68.20;;;;;;4970960;28;20405;-63
2022/06/21 08:07:46;;;;;;;7.07;3.77;;;20.40;67.10;;;;;;5009613;28;20582;-63
2022/06/21 08:10:25;;;;;;;4.03;3.73;;;20.50;67.90;;;;;;4989313;28;20452;-62
2022/06/21 08:12:51;;;;;;;3.90;3.50;;;20.60;65.50;;;;;;4970020;28;20397;-64
2022/06/21 08:15:18;;;;;;;4.37;3.40;;;20.70;65.60;;;;;;4970787;28;20953;-63
2022/06/21 08:17:51;;;;;;;5.80;4.37;;;20.70;65.30;;;;;;4970510;28;20416;-63
2022/06/21 08:20:25;;;;;;;7.60;4.23;;;20.80;64.50;;;;;;4989859;28;20516;-63
2022/06/21 08:23:06;;;;;;;4.83;4.10;;;20.80;65.00;;;;;;4970777;28;20459;-63
2022/06/21 08:25:48;;;;;;;7.90;3.90;;;20.80;64.60;;;;;;4969567;28;20440;-62
2022/06/21 08:28:23;;;;;;;4.90;3.90;;;20.70;63.40;;;;;;4988018;28;20431;-63
2022/06/21 08:30:52;;;;;;;7.10;4.27;;;20.70;64.60;;;;;;4987854;28;20447;-62
2022/06/21 08:33:34;;;;;;;6.03;4.47;;;20.80;64.80;;;;;;5004270;28;20809;-63
2022/06/21 08:36:06;;;;;;;4.93;3.50;;;20.90;64.90;;;;;;4975064;28;20428;-63
2022/06/21 08:38:43;;;;;;;4.40;3.70;;;21.10;65.20;;;;;;5006362;28;20438;-63
2022/06/21 08:44:29;;;;;;;4.53;4.10;;;21.30;62.50;;;;;;4996434;28;20447;-63
2022/06/21 08:47:19;;;;;;;5.23;3.60;;;21.40;63.60;;;;;;4989045;28;20854;-62
2022/06/21 08:50:09;;;;;;;8.20;4.30;;;21.50;63.10;;;;;;4974131;28;20548;-63
2022/06/21 08:52:42;;;;;;;4.90;3.90;;;21.50;63.80;;;;;;4970012;28;20436;-63
2022/06/21 08:55:11;;;;;;;5.60;3.93;;;21.70;63.10;;;;;;4970020;28;20487;-63
2022/06/21 08:57:45;;;;;;;5.83;4.00;;;21.80;63.40;;;;;;4969814;28;20796;-63
2022/06/21 09:00:25;;;;;;;5.30;4.10;;;21.90;63.60;;;;;;4988271;28;20440;-63
2022/06/21 09:02:55;;;;;;;9.20;4.13;;;22.10;62.90;;;;;;4987981;28;20619;-64
2022/06/21 09:05:48;;;;;;;5.33;4.63;;;22.30;63.00;;;;;;4987451;28;20846;-63
2022/06/21 09:08:22;;;;;;;5.37;4.83;;;22.40;61.70;;;;;;4989582;28;20761;-62
2022/06/21 09:11:00;;;;;;;12.57;4.97;;;22.60;62.00;;;;;;4978941;28;20953;-63
2022/06/21 09:13:57;;;;;;;4.43;4.00;;;22.70;62.00;;;;;;4962106;28;20416;-63
2022/06/21 09:16:35;;;;;;;7.73;3.83;;;22.80;61.40;;;;;;4992571;28;20516;-63
2022/06/21 09:19:24;;;;;;;8.07;4.63;;;22.90;61.20;;;;;;4978452;28;20582;-63
2022/06/21 09:22:20;;;;;;;8.60;4.60;;;23.00;61.10;;;;;;4981014;28;20867;-63
2022/06/21 09:24:58;;;;;;;6.60;4.40;;;23.20;61.00;;;;;;5007984;28;20423;-63
2022/06/21 09:27:34;;;;;;;5.37;4.87;;;23.40;60.70;;;;;;4986982;28;20810;-63
2022/06/21 09:30:20;;;;;;;9.83;4.60;;;23.60;61.60;;;;;;4990529;28;20611;-64
2022/06/21 09:33:04;;;;;;;6.93;4.57;;;23.70;60.70;;;;;;4991150;28;21007;-63
2022/06/21 09:35:37;;;;;;;5.40;4.67;;;23.90;60.10;;;;;;4981855;28;20443;-64
2022/06/21 09:38:30;;;;;;;8.10;5.10;;;24.00;60.00;;;;;;4976505;28;20512;-63
2022/06/21 09:41:12;;;;;;;4.97;4.30;;;24.00;59.20;;;;;;4991020;28;20434;-63
2022/06/21 09:43:43;;;;;;;8.40;4.80;;;24.10;60.10;;;;;;4992635;28;20574;-63
2022/06/21 09:46:37;;;;;;;6.37;4.67;;;24.30;60.50;;;;;;4975795;28;20439;-63
2022/06/21 09:49:31;;;;;;;4.80;4.40;;;24.50;59.50;;;;;;4979377;28;20426;-63
2022/06/21 09:52:02;;;;;;;6.10;4.40;;;24.70;59.00;;;;;;4998855;28;20806;-64
2022/06/21 09:54:46;;;;;;;7.23;4.53;;;24.90;58.90;;;;;;4986602;28;20447;-63
2022/06/21 09:57:53;;;;;;;5.67;5.10;;;25.10;58.80;;;;;;4994463;28;20425;-63
2022/06/21 10:00:33;;;;;;;6.60;5.33;;;25.20;58.20;;;;;;5005187;28;20450;-63
2022/06/21 10:03:07;;;;;;;8.53;4.67;;;25.40;57.30;;;;;;5012250;28;20463;-63
2022/06/21 10:06:01;;;;;;;7.53;5.37;;;25.50;56.70;;;;;;4989495;28;20429;-64
2022/06/21 10:08:45;;;;;;;6.13;5.13;;;25.60;56.90;;;;;;4973648;28;20431;-63
2022/06/21 10:11:39;;;;;;;5.87;4.60;;;25.60;57.10;;;;;;4977857;28;20988;-63
2022/06/21 10:14:26;;;;;;;7.37;5.53;;;25.70;57.20;;;;;;4979275;28;20422;-62
2022/06/21 10:17:30;;;;;;;6.10;5.07;;;25.90;56.50;;;;;;4988912;28;20431;-62
2022/06/21 10:20:33;;;;;;;8.60;4.90;;;26.00;56.00;;;;;;4928317;29;20568;-63
2022/06/21 10:23:34;;;;;;;6.73;5.50;;;26.20;55.70;;;;;;4995519;28;20460;-64
2022/06/21 10:26:27;;;;;;;8.50;5.13;;;26.20;55.00;;;;;;4999986;28;20493;-63
2022/06/21 10:29:13;;;;;;;7.77;5.60;;;25.90;54.80;;;;;;4990213;28;20484;-63
2022/06/21 10:32:19;;;;;;;8.93;6.13;;;25.60;55.30;;;;;;4996335;28;20443;-63
2022/06/21 10:35:10;;;;;;;9.73;5.77;;;25.30;56.00;;;;;;4989767;28;20443;-63
2022/06/21 10:38:02;;;;;;;16.17;5.77;;;25.10;56.60;;;;;;4994579;28;20438;-64
2022/06/21 10:41:01;;;;;;;10.97;5.93;;;24.90;56.70;;;;;;4984019;28;20450;-62
2022/06/21 10:43:32;;;;;;;12.50;5.80;;;24.70;57.60;;;;;;4989035;28;20468;-63
2022/06/21 10:45:59;;;;;;;9.97;5.97;;;24.60;58.10;;;;;;5003077;28;20423;-63
2022/06/21 10:48:46;;;;;;;9.37;6.27;;;24.50;58.30;;;;;;4975268;28;20539;-63
2022/06/21 10:51:17;;;;;;;10.83;6.00;;;24.60;59.10;;;;;;4987612;28;20494;-63
2022/06/21 10:54:32;;;;;;;10.37;6.30;;;24.60;59.90;;;;;;4984329;28;20431;-64
2022/06/21 10:57:20;;;;;;;8.37;5.90;;;24.70;60.40;;;;;;4936314;28;20443;-64
2022/06/21 11:02:59;;;;;;;12.73;6.10;;;25.30;59.70;;;;;;4988545;28;20463;-63
2022/06/21 11:05:49;;;;;;;11.30;6.50;;;25.60;58.70;;;;;;4974859;28;20487;-62
2022/06/21 11:08:15;;;;;;;8.10;5.97;;;26.00;57.40;;;;;;4991241;28;21047;-64
2022/06/21 11:10:50;;;;;;;9.30;6.00;;;26.30;56.70;;;;;;4984113;28;20508;-63
2022/06/21 11:13:20;;;;;;;7.27;5.93;;;26.50;56.60;;;;;;4998423;28;20565;-63
2022/06/21 11:16:15;;;;;;;8.90;6.57;;;26.70;55.10;;;;;;5004109;28;20497;-66
2022/06/21 11:19:13;;;;;;;10.73;5.70;;;26.90;54.70;;;;;;4978195;28;21153;-64
2022/06/21 11:21:59;;;;;;;7.47;5.97;;;26.90;54.10;;;;;;4992374;28;20467;-64
2022/06/21 11:24:54;;;;;;;7.20;6.00;;;26.90;53.50;;;;;;4992222;28;21010;-64
2022/06/21 11:27:45;;;;;;;8.73;5.83;;;26.90;53.90;;;;;;4945827;28;20668;-64
2022/06/21 11:30:39;;;;;;;13.37;5.40;;;26.90;54.60;;;;;;4982831;28;20449;-63
2022/06/21 11:33:21;;;;;;;11.03;6.83;;;27.00;54.70;;;;;;4986542;28;20436;-58
2022/06/21 11:35:53;;;;;;;8.93;5.27;;;27.30;53.60;;;;;;4991365;28;20176;-60
2022/06/21 11:38:35;;;;;;;11.47;6.67;;;27.50;54.60;;;;;;4984408;28;20200;-59
2022/06/21 11:42:04;;;;;;;8.50;6.47;;;27.60;53.90;;;;;;4978382;28;20693;-60
2022/06/21 11:44:19;;;;;;;12.57;5.93;;;27.70;52.20;;;;;;4985119;28;20771;-59
2022/06/21 11:47:03;;;;;;;9.00;5.73;;;27.80;53.00;;;;;;5001374;28;20260;-60
2022/06/21 11:49:45;;;;;;;7.77;5.70;;;28.00;53.60;;;;;;4976860;28;20659;-56
2022/06/21 11:52:14;;;;;;;7.50;5.63;;;28.30;53.20;;;;;;4994531;28;20180;-58
2022/06/21 11:55:05;;;;;;;7.50;5.50;;;28.50;52.40;;;;;;4986705;28;20278;-59
2022/06/21 11:58:13;;;;;;;17.97;6.57;;;28.50;51.60;;;;;;4978095;28;20275;-59
2022/06/21 12:00:52;;;;;;;7.17;5.27;;;28.60;52.20;;;;;;4977155;28;20238;-59
2022/06/21 12:03:25;;;;;;;9.83;5.87;;;28.80;51.50;;;;;;4984601;28;20201;-57
2022/06/21 12:05:58;;;;;;;12.83;6.33;;;29.00;52.10;;;;;;4984552;28;20199;-59
2022/06/21 12:08:36;;;;;;;7.03;5.57;;;29.20;51.00;;;;;;4984772;28;20178;-62
2022/06/21 12:11:19;;;;;;;8.23;5.37;;;29.40;50.70;;;;;;4996706;28;20201;-63
2022/06/21 12:14:26;;;;;;;8.10;5.73;;;29.60;50.20;;;;;;4986727;28;20172;-63
2022/06/21 12:17:15;;;;;;;8.95;6.22;;;29.70;49.90;;;;;;4972591;28;20290;-60
2022/06/21 12:19:44;;;;;;;15.18;5.50;;;29.80;48.10;;;;;;4982121;28;20276;-61
2022/06/21 12:22:18;;;;;;;15.13;8.00;;;29.90;49.00;;;;;;4984914;28;20204;-61
2022/06/21 12:24:44;;;;;;;12.95;6.78;;;30.00;48.80;;;;;;4984679;28;20794;-62
2022/06/21 12:27:11;;;;;;;10.50;7.00;;;30.20;48.70;;;;;;4978517;28;20536;-62
2022/06/21 12:29:37;;;;;;;11.07;7.55;;;30.40;48.70;;;;;;4979741;28;20173;-60
2022/06/21 12:32:06;;;;;;;16.08;7.57;;;30.50;48.50;;;;;;4983119;28;20690;-62
2022/06/21 12:34:41;;;;;;;12.98;6.97;;;30.80;48.30;;;;;;4964040;28;20180;-61
2022/06/21 12:37:15;;;;;;;10.13;5.93;;;30.90;47.00;;;;;;4982572;28;20344;-60
2022/06/21 12:40:04;;;;;;;16.15;9.95;;;31.00;47.00;;;;;;4988117;28;20187;-61
2022/06/21 12:42:40;;;;;;;19.35;7.20;;;31.10;46.40;;;;;;4984869;28;20683;-61
2022/06/21 12:45:23;;;;;;;9.02;5.75;;;31.20;46.30;;;;;;4987727;28;20204;-63
2022/06/21 12:48:10;;;;;;;13.30;6.18;;;31.20;45.70;;;;;;4989039;28;20173;-62
2022/06/21 12:51:29;;;;;;;11.60;6.32;;;31.30;45.10;;;;;;4986435;28;20189;-62
2022/06/21 12:54:10;;;;;;;11.57;6.00;;;31.40;45.20;;;;;;4952633;28;20174;-61
2022/06/21 12:56:59;;;;;;;9.23;5.10;;;31.50;45.50;;;;;;4954967;28;20261;-61
2022/06/21 12:59:44;;;;;;;15.68;6.18;;;31.60;45.20;;;;;;4977174;28;20190;-61
2022/06/21 13:02:19;;;;;;;5.72;5.18;;;31.70;45.00;;;;;;4982012;28;20205;-61
2022/06/21 13:05:22;;;;;;;14.02;5.50;;;31.80;44.40;;;;;;4979138;28;20175;-61
2022/06/21 13:08:09;;;;;;;8.07;6.00;;;31.80;43.20;;;;;;4983779;28;20171;-61
2022/06/21 13:10:58;;;;;;;8.38;5.35;;;31.70;43.10;;;;;;4977823;28;20692;-61
2022/06/21 13:13:53;;;;;;;6.90;5.20;;;31.90;44.20;;;;;;4983031;28;20688;-60
2022/06/21 13:16:46;;;;;;;7.20;5.75;;;32.00;44.30;;;;;;4974527;28;20239;-62
2022/06/21 13:19:21;;;;;;;9.68;5.50;;;32.10;43.60;;;;;;4982302;28;20248;-59
2022/06/21 13:21:46;;;;;;;13.88;7.40;;;32.10;44.30;;;;;;4984015;28;20764;-59
2022/06/21 13:24:49;;;;;;;14.10;6.65;;;32.30;44.30;;;;;;4981761;28;20178;-61
2022/06/21 13:27:43;;;;;;;11.10;6.22;;;32.40;44.20;;;;;;4985302;28;20696;-61
2022/06/21 13:30:37;;;;;;;12.35;6.82;;;32.40;42.90;;;;;;4979169;28;20566;-61
2022/06/21 13:33:17;;;;;;;14.50;6.18;;;32.50;43.60;;;;;;4993006;28;20654;-59
2022/06/21 13:35:46;;;;;;;13.35;6.03;;;32.60;43.10;;;;;;4979019;28;20186;-58
2022/06/21 13:38:30;;;;;;;7.63;5.63;;;32.70;43.40;;;;;;4984634;28;20249;-59
2022/06/21 13:42:37;;;;;;;10.43;5.93;;;32.80;42.60;;;;;;4979103;28;20284;-60
2022/06/21 13:44:07;;;;;;;12.70;6.20;;;32.90;42.50;;;;;;4988327;28;20181;-59
2022/06/21 13:46:38;;;;;;;10.65;6.13;;;32.90;43.00;;;;;;4983867;28;20270;-60
2022/06/21 13:49:26;;;;;;;8.20;5.28;;;32.90;42.40;;;;;;4982348;28;20191;-61
2022/06/21 13:52:01;;;;;;;9.23;6.68;;;32.90;42.30;;;;;;4973135;28;20193;-59
2022/06/21 13:54:37;;;;;;;11.73;5.85;;;33.00;42.80;;;;;;4975230;28;20204;-61
2022/06/21 13:57:29;;;;;;;8.07;5.47;;;33.10;42.80;;;;;;4990333;28;20204;-61